Amboy, IN

6:43 PM EDT on August 28, 2016 (GMT -0400)
Vincent Farms - Amboy, IN | | Change Station

Elev 833 ft 40.59 °N, 85.98 °W | Updated 9 minutes ago

Mostly Cloudy
Mostly Cloudy
70.1 °F
Feels Like 70.1 °F
N
15.0
Wind Variable Wind from NNE
Gusts 30.0 mph

Today
High -- | Low -- °F
--% Chance of Precip.
Yesterday
High -- | Low -- °F
Precip. -- in
Pressure 30.17 in
Visibility 10.0 miles
Clouds Few 4300 ft
Scattered Clouds 5500 ft
Mostly Cloudy 7000 ft
Dew Point 66 °F
Humidity 87%
Rainfall 0.00 in
Snow Depth Not available.
7:07 AM 8:21 PM
Waning Crescent, 13% visible
METAR KOKK 282235Z AUTO 01021G33KT 10SM VCTS FEW043 SCT055 BKN070 23/18 A3017 RMK AO1 LTG DSNT ALQDS
Pressure 30.17 in
Visibility 10.0 miles
Clouds Few 4300 ft
Scattered Clouds 5500 ft
Mostly Cloudy 7000 ft
Dew Point 66 °F
Humidity 87%
Rainfall 0.00 in
Snow Depth Not available.
7:07 AM 8:21 PM
Waning Crescent, 13% visible
METAR KOKK 282235Z AUTO 01021G33KT 10SM VCTS FEW043 SCT055 BKN070 23/18 A3017 RMK AO1 LTG DSNT ALQDS

10-Day Weather Forecast

Almanac

Astronomy

Aug. 28, 2016 Rise Set
Actual Time
Civil Twilight
Nautical Twilight
Astronomical Twilight
Moon
Length of Visible Light
Length of Day
Tomorrow will be .
, % of the Moon is Illuminated

Today's Extremes

State Highs State Lows

Community

WunderPhotos

Upload Photos

1,935,705 photos uploaded!

WunderBlog® & News

Nearby

Air Quality

  Air Quality AQ Index Pollutant
Not available.

Snow Depth

Station Depth Elevation

Earthquake Activity

City Distance Mag. Time & Date
Minimum magnitude displayed is 2.5.

Coastal Water Temperatures

Place Temperature

Stations

Nearby Weather Stations

Station Location Temp. Windchill Dew Point Humidity Wind Precip. Elev Updated Type
                   

Watches & Warnings

Severe Thunderstorm Warning
Issued: 6:38 PM EDT Aug. 28, 2016 – National Weather Service

... The Severe Thunderstorm Warning for southern Miami County will
expire at 645 PM EDT...

the storm which prompted the warning has weakened below severe
limits... and has exited the warned area. Therefore... the warning will
be allowed to expire.

Lat... Lon 4067 8611 4070 8601 4070 8594 4065 8594
      4065 8586 4057 8586 4056 8616
time... Mot... loc 2236z 294deg 28kt 4061 8596


NWS